sensor_id;sensor_type;location;lat;lon;timestamp;P1;durP1;ratioP1;P2;durP2;ratioP2
2848;SDS011;59355;52.416;13.412;2023-05-07T00:01:30;21.90;;;19.87;;
2848;SDS011;59355;52.416;13.412;2023-05-07T00:03:56;20.47;;;18.43;;
2848;SDS011;59355;52.416;13.412;2023-05-07T00:06:21;21.03;;;19.03;;
2848;SDS011;59355;52.416;13.412;2023-05-07T00:08:47;22.77;;;20.40;;
2848;SDS011;59355;52.416;13.412;2023-05-07T00:11:12;21.10;;;19.00;;
2848;SDS011;59355;52.416;13.412;2023-05-07T00:13:38;19.93;;;17.90;;
2848;SDS011;59355;52.416;13.412;2023-05-07T00:16:03;21.27;;;19.13;;
2848;SDS011;59355;52.416;13.412;2023-05-07T00:18:29;18.53;;;16.60;;
2848;SDS011;59355;52.416;13.412;2023-05-07T00:20:54;19.07;;;17.07;;
2848;SDS011;59355;52.416;13.412;2023-05-07T00:23:20;17.83;;;16.03;;
2848;SDS011;59355;52.416;13.412;2023-05-07T00:25:45;18.67;;;16.97;;
2848;SDS011;59355;52.416;13.412;2023-05-07T00:28:10;18.93;;;17.03;;
2848;SDS011;59355;52.416;13.412;2023-05-07T00:30:35;19.33;;;17.27;;
2848;SDS011;59355;52.416;13.412;2023-05-07T00:33:01;18.23;;;16.63;;
2848;SDS011;59355;52.416;13.412;2023-05-07T00:35:27;17.30;;;15.70;;
2848;SDS011;59355;52.416;13.412;2023-05-07T00:37:53;15.50;;;14.00;;
2848;SDS011;59355;52.416;13.412;2023-05-07T00:40:19;15.67;;;14.33;;
2848;SDS011;59355;52.416;13.412;2023-05-07T00:42:44;15.70;;;14.10;;
2848;SDS011;59355;52.416;13.412;2023-05-07T00:45:11;17.80;;;15.93;;
2848;SDS011;59355;52.416;13.412;2023-05-07T00:47:40;17.73;;;15.47;;
2848;SDS011;59355;52.416;13.412;2023-05-07T00:50:05;14.53;;;13.03;;
2848;SDS011;59355;52.416;13.412;2023-05-07T00:52:32;15.80;;;14.40;;
2848;SDS011;59355;52.416;13.412;2023-05-07T00:54:57;15.50;;;13.83;;
2848;SDS011;59355;52.416;13.412;2023-05-07T00:57:23;14.83;;;13.50;;
2848;SDS011;59355;52.416;13.412;2023-05-07T00:59:50;14.77;;;13.47;;
2848;SDS011;59355;52.416;13.412;2023-05-07T01:02:16;13.93;;;12.63;;
2848;SDS011;59355;52.416;13.412;2023-05-07T01:04:42;13.50;;;12.20;;
2848;SDS011;59355;52.416;13.412;2023-05-07T01:07:07;14.53;;;13.23;;
2848;SDS011;59355;52.416;13.412;2023-05-07T01:09:32;13.47;;;12.37;;
2848;SDS011;59355;52.416;13.412;2023-05-07T01:12:00;13.50;;;12.20;;
2848;SDS011;59355;52.416;13.412;2023-05-07T01:14:25;13.70;;;12.40;;
2848;SDS011;59355;52.416;13.412;2023-05-07T01:16:51;14.33;;;12.93;;
2848;SDS011;59355;52.416;13.412;2023-05-07T01:19:17;13.97;;;12.57;;
2848;SDS011;59355;52.416;13.412;2023-05-07T01:21:45;15.30;;;13.80;;
2848;SDS011;59355;52.416;13.412;2023-05-07T01:24:12;15.60;;;14.20;;
2848;SDS011;59355;52.416;13.412;2023-05-07T01:26:38;14.97;;;13.40;;
2848;SDS011;59355;52.416;13.412;2023-05-07T01:29:06;14.30;;;12.90;;
2848;SDS011;59355;52.416;13.412;2023-05-07T01:31:32;15.00;;;13.57;;
2848;SDS011;59355;52.416;13.412;2023-05-07T01:33:59;14.93;;;13.63;;
2848;SDS011;59355;52.416;13.412;2023-05-07T01:36:24;15.07;;;13.27;;
2848;SDS011;59355;52.416;13.412;2023-05-07T01:38:52;15.57;;;13.97;;
2848;SDS011;59355;52.416;13.412;2023-05-07T01:41:17;15.60;;;14.00;;
2848;SDS011;59355;52.416;13.412;2023-05-07T01:43:43;13.80;;;12.50;;
2848;SDS011;59355;52.416;13.412;2023-05-07T01:46:09;15.60;;;14.13;;
2848;SDS011;59355;52.416;13.412;2023-05-07T01:48:35;15.87;;;14.47;;
2848;SDS011;59355;52.416;13.412;2023-05-07T01:51:01;16.67;;;15.07;;
2848;SDS011;59355;52.416;13.412;2023-05-07T01:53:27;16.57;;;14.03;;
2848;SDS011;59355;52.416;13.412;2023-05-07T01:55:53;15.80;;;14.30;;
2848;SDS011;59355;52.416;13.412;2023-05-07T01:58:18;16.17;;;14.47;;
2848;SDS011;59355;52.416;13.412;2023-05-07T02:00:43;15.13;;;13.53;;
2848;SDS011;59355;52.416;13.412;2023-05-07T02:03:09;14.97;;;13.63;;
2848;SDS011;59355;52.416;13.412;2023-05-07T02:05:34;15.40;;;14.00;;
2848;SDS011;59355;52.416;13.412;2023-05-07T02:07:59;16.60;;;14.30;;
2848;SDS011;59355;52.416;13.412;2023-05-07T02:10:25;15.43;;;13.90;;
2848;SDS011;59355;52.416;13.412;2023-05-07T02:12:50;13.97;;;12.70;;
2848;SDS011;59355;52.416;13.412;2023-05-07T02:15:15;14.90;;;13.50;;
2848;SDS011;59355;52.416;13.412;2023-05-07T02:18:00;14.00;;;12.70;;
2848;SDS011;59355;52.416;13.412;2023-05-07T02:20:26;14.43;;;13.13;;
2848;SDS011;59355;52.416;13.412;2023-05-07T02:22:52;16.17;;;14.47;;
2848;SDS011;59355;52.416;13.412;2023-05-07T02:25:17;15.60;;;14.10;;
2848;SDS011;59355;52.416;13.412;2023-05-07T02:27:42;15.20;;;13.70;;
2848;SDS011;59355;52.416;13.412;2023-05-07T02:30:08;16.00;;;14.40;;
2848;SDS011;59355;52.416;13.412;2023-05-07T02:32:33;15.10;;;13.67;;
2848;SDS011;59355;52.416;13.412;2023-05-07T02:34:59;15.50;;;14.00;;
2848;SDS011;59355;52.416;13.412;2023-05-07T02:37:24;13.90;;;12.70;;
2848;SDS011;59355;52.416;13.412;2023-05-07T02:39:49;13.47;;;12.17;;
2848;SDS011;59355;52.416;13.412;2023-05-07T02:42:15;15.90;;;14.40;;
2848;SDS011;59355;52.416;13.412;2023-05-07T02:44:40;13.70;;;12.43;;
2848;SDS011;59355;52.416;13.412;2023-05-07T02:47:05;15.17;;;13.73;;
2848;SDS011;59355;52.416;13.412;2023-05-07T02:49:33;15.17;;;13.73;;
2848;SDS011;59355;52.416;13.412;2023-05-07T02:51:58;16.60;;;12.97;;
2848;SDS011;59355;52.416;13.412;2023-05-07T02:54:24;14.00;;;12.53;;
2848;SDS011;59355;52.416;13.412;2023-05-07T02:56:49;17.40;;;13.63;;
2848;SDS011;59355;52.416;13.412;2023-05-07T02:59:15;14.07;;;12.77;;
2848;SDS011;59355;52.416;13.412;2023-05-07T03:01:40;13.40;;;12.20;;
2848;SDS011;59355;52.416;13.412;2023-05-07T03:04:06;15.47;;;13.97;;
2848;SDS011;59355;52.416;13.412;2023-05-07T03:06:31;14.97;;;13.50;;
2848;SDS011;59355;52.416;13.412;2023-05-07T03:08:57;14.33;;;13.03;;
2848;SDS011;59355;52.416;13.412;2023-05-07T03:11:22;14.73;;;13.23;;
2848;SDS011;59355;52.416;13.412;2023-05-07T03:13:47;14.43;;;12.90;;
2848;SDS011;59355;52.416;13.412;2023-05-07T03:16:14;14.30;;;12.90;;
2848;SDS011;59355;52.416;13.412;2023-05-07T03:18:40;15.90;;;14.27;;
2848;SDS011;59355;52.416;13.412;2023-05-07T03:21:05;15.47;;;13.97;;
2848;SDS011;59355;52.416;13.412;2023-05-07T03:23:31;14.87;;;13.53;;
2848;SDS011;59355;52.416;13.412;2023-05-07T03:25:56;17.83;;;12.57;;
2848;SDS011;59355;52.416;13.412;2023-05-07T03:28:21;14.60;;;13.27;;
2848;SDS011;59355;52.416;13.412;2023-05-07T03:30:47;15.03;;;13.60;;
2848;SDS011;59355;52.416;13.412;2023-05-07T03:33:12;16.33;;;14.67;;
2848;SDS011;59355;52.416;13.412;2023-05-07T03:35:37;14.20;;;12.80;;
2848;SDS011;59355;52.416;13.412;2023-05-07T03:38:02;14.70;;;13.20;;
2848;SDS011;59355;52.416;13.412;2023-05-07T03:40:28;13.67;;;12.37;;
2848;SDS011;59355;52.416;13.412;2023-05-07T03:42:53;15.93;;;12.90;;
2848;SDS011;59355;52.416;13.412;2023-05-07T03:45:19;14.27;;;12.90;;
2848;SDS011;59355;52.416;13.412;2023-05-07T03:47:44;20.20;;;15.33;;
2848;SDS011;59355;52.416;13.412;2023-05-07T03:50:10;15.23;;;13.70;;
2848;SDS011;59355;52.416;13.412;2023-05-07T03:52:35;14.27;;;12.77;;
2848;SDS011;59355;52.416;13.412;2023-05-07T03:55:00;14.47;;;13.17;;
2848;SDS011;59355;52.416;13.412;2023-05-07T03:57:26;14.80;;;12.43;;
2848;SDS011;59355;52.416;13.412;2023-05-07T03:59:51;14.40;;;12.90;;
2848;SDS011;59355;52.416;13.412;2023-05-07T04:02:16;15.17;;;13.70;;
2848;SDS011;59355;52.416;13.412;2023-05-07T04:04:42;13.60;;;12.30;;
2848;SDS011;59355;52.416;13.412;2023-05-07T04:07:07;14.80;;;13.40;;
2848;SDS011;59355;52.416;13.412;2023-05-07T04:09:32;14.60;;;13.17;;
2848;SDS011;59355;52.416;13.412;2023-05-07T04:11:58;14.47;;;12.70;;
2848;SDS011;59355;52.416;13.412;2023-05-07T04:14:23;16.50;;;14.70;;
2848;SDS011;59355;52.416;13.412;2023-05-07T04:16:48;15.83;;;14.33;;
2848;SDS011;59355;52.416;13.412;2023-05-07T04:19:14;16.07;;;14.43;;
2848;SDS011;59355;52.416;13.412;2023-05-07T04:21:39;16.10;;;14.57;;
2848;SDS011;59355;52.416;13.412;2023-05-07T04:24:05;15.13;;;13.80;;
2848;SDS011;59355;52.416;13.412;2023-05-07T04:26:30;14.00;;;12.70;;
2848;SDS011;59355;52.416;13.412;2023-05-07T04:28:56;13.13;;;11.90;;
2848;SDS011;59355;52.416;13.412;2023-05-07T04:31:23;14.60;;;13.27;;
2848;SDS011;59355;52.416;13.412;2023-05-07T04:33:49;15.53;;;14.00;;
2848;SDS011;59355;52.416;13.412;2023-05-07T04:36:15;14.57;;;13.07;;
2848;SDS011;59355;52.416;13.412;2023-05-07T04:38:41;14.30;;;12.90;;
2848;SDS011;59355;52.416;13.412;2023-05-07T04:41:09;14.63;;;13.10;;
2848;SDS011;59355;52.416;13.412;2023-05-07T04:43:34;13.70;;;12.23;;
2848;SDS011;59355;52.416;13.412;2023-05-07T04:46:00;14.13;;;12.83;;
2848;SDS011;59355;52.416;13.412;2023-05-07T04:48:25;14.40;;;13.07;;
2848;SDS011;59355;52.416;13.412;2023-05-07T04:50:51;14.30;;;13.00;;
2848;SDS011;59355;52.416;13.412;2023-05-07T04:53:16;14.03;;;12.53;;
2848;SDS011;59355;52.416;13.412;2023-05-07T04:55:42;14.33;;;12.93;;
2848;SDS011;59355;52.416;13.412;2023-05-07T04:58:08;15.53;;;13.93;;
2848;SDS011;59355;52.416;13.412;2023-05-07T05:00:33;14.23;;;13.03;;
2848;SDS011;59355;52.416;13.412;2023-05-07T05:02:58;15.00;;;13.53;;
2848;SDS011;59355;52.416;13.412;2023-05-07T05:05:24;13.43;;;12.10;;
2848;SDS011;59355;52.416;13.412;2023-05-07T05:07:49;13.83;;;12.57;;
2848;SDS011;59355;52.416;13.412;2023-05-07T05:10:16;13.10;;;11.80;;
2848;SDS011;59355;52.416;13.412;2023-05-07T05:12:42;13.13;;;11.93;;
2848;SDS011;59355;52.416;13.412;2023-05-07T05:15:07;12.30;;;11.20;;
2848;SDS011;59355;52.416;13.412;2023-05-07T05:17:33;12.40;;;11.30;;
2848;SDS011;59355;52.416;13.412;2023-05-07T05:20:00;10.30;;;9.40;;
2848;SDS011;59355;52.416;13.412;2023-05-07T05:22:26;10.97;;;10.00;;
2848;SDS011;59355;52.416;13.412;2023-05-07T05:24:51;12.03;;;10.70;;
2848;SDS011;59355;52.416;13.412;2023-05-07T05:27:16;11.40;;;10.50;;
2848;SDS011;59355;52.416;13.412;2023-05-07T05:29:42;11.20;;;10.10;;
2848;SDS011;59355;52.416;13.412;2023-05-07T05:32:07;11.00;;;10.00;;
2848;SDS011;59355;52.416;13.412;2023-05-07T05:34:32;11.10;;;10.10;;
2848;SDS011;59355;52.416;13.412;2023-05-07T05:36:58;10.60;;;9.60;;
2848;SDS011;59355;52.416;13.412;2023-05-07T05:39:24;11.33;;;10.10;;
2848;SDS011;59355;52.416;13.412;2023-05-07T05:41:49;11.20;;;10.20;;
2848;SDS011;59355;52.416;13.412;2023-05-07T05:44:14;10.20;;;9.40;;
2848;SDS011;59355;52.416;13.412;2023-05-07T05:46:40;9.10;;;8.23;;
2848;SDS011;59355;52.416;13.412;2023-05-07T05:49:05;10.17;;;9.30;;
2848;SDS011;59355;52.416;13.412;2023-05-07T05:51:30;10.07;;;9.03;;
2848;SDS011;59355;52.416;13.412;2023-05-07T05:53:56;10.80;;;9.77;;
2848;SDS011;59355;52.416;13.412;2023-05-07T05:56:21;18.53;;;9.60;;
2848;SDS011;59355;52.416;13.412;2023-05-07T05:58:46;9.60;;;8.70;;
2848;SDS011;59355;52.416;13.412;2023-05-07T06:01:12;10.10;;;9.20;;
2848;SDS011;59355;52.416;13.412;2023-05-07T06:03:37;9.63;;;8.70;;
2848;SDS011;59355;52.416;13.412;2023-05-07T06:06:02;10.77;;;9.63;;
2848;SDS011;59355;52.416;13.412;2023-05-07T06:08:31;9.63;;;8.57;;
2848;SDS011;59355;52.416;13.412;2023-05-07T06:10:56;10.70;;;8.33;;
2848;SDS011;59355;52.416;13.412;2023-05-07T06:13:22;8.57;;;7.77;;
2848;SDS011;59355;52.416;13.412;2023-05-07T06:15:48;9.50;;;8.60;;
2848;SDS011;59355;52.416;13.412;2023-05-07T06:18:14;10.63;;;8.27;;
2848;SDS011;59355;52.416;13.412;2023-05-07T06:20:39;10.20;;;9.20;;
2848;SDS011;59355;52.416;13.412;2023-05-07T06:23:04;8.30;;;7.50;;
2848;SDS011;59355;52.416;13.412;2023-05-07T06:25:30;8.90;;;8.00;;
2848;SDS011;59355;52.416;13.412;2023-05-07T06:27:55;10.10;;;9.20;;
2848;SDS011;59355;52.416;13.412;2023-05-07T06:30:20;9.63;;;8.47;;
2848;SDS011;59355;52.416;13.412;2023-05-07T06:32:46;9.10;;;8.30;;
2848;SDS011;59355;52.416;13.412;2023-05-07T06:35:11;9.90;;;9.00;;
2848;SDS011;59355;52.416;13.412;2023-05-07T06:37:36;9.00;;;8.10;;
2848;SDS011;59355;52.416;13.412;2023-05-07T06:40:03;9.40;;;8.50;;
2848;SDS011;59355;52.416;13.412;2023-05-07T06:42:30;10.00;;;9.03;;
2848;SDS011;59355;52.416;13.412;2023-05-07T06:44:55;9.20;;;8.03;;
2848;SDS011;59355;52.416;13.412;2023-05-07T06:47:20;10.57;;;8.63;;
2848;SDS011;59355;52.416;13.412;2023-05-07T06:49:45;10.10;;;9.10;;
2848;SDS011;59355;52.416;13.412;2023-05-07T06:52:11;8.53;;;7.73;;
2848;SDS011;59355;52.416;13.412;2023-05-07T06:54:36;9.83;;;8.80;;
2848;SDS011;59355;52.416;13.412;2023-05-07T06:57:01;10.07;;;9.07;;
2848;SDS011;59355;52.416;13.412;2023-05-07T06:59:27;9.87;;;8.63;;
2848;SDS011;59355;52.416;13.412;2023-05-07T07:01:52;11.63;;;10.43;;
2848;SDS011;59355;52.416;13.412;2023-05-07T07:04:17;10.50;;;9.47;;
2848;SDS011;59355;52.416;13.412;2023-05-07T07:06:43;9.70;;;8.70;;
2848;SDS011;59355;52.416;13.412;2023-05-07T07:09:08;10.10;;;9.10;;
2848;SDS011;59355;52.416;13.412;2023-05-07T07:11:33;10.53;;;9.17;;
2848;SDS011;59355;52.416;13.412;2023-05-07T07:13:59;9.70;;;8.70;;
2848;SDS011;59355;52.416;13.412;2023-05-07T07:16:24;9.33;;;8.40;;
2848;SDS011;59355;52.416;13.412;2023-05-07T07:18:50;10.40;;;9.40;;
2848;SDS011;59355;52.416;13.412;2023-05-07T07:21:15;10.13;;;9.13;;
2848;SDS011;59355;52.416;13.412;2023-05-07T07:23:41;10.40;;;8.57;;
2848;SDS011;59355;52.416;13.412;2023-05-07T07:26:06;10.87;;;8.23;;
2848;SDS011;59355;52.416;13.412;2023-05-07T07:28:31;10.30;;;8.67;;
2848;SDS011;59355;52.416;13.412;2023-05-07T07:30:57;8.90;;;8.00;;
2848;SDS011;59355;52.416;13.412;2023-05-07T07:33:22;9.50;;;8.60;;
2848;SDS011;59355;52.416;13.412;2023-05-07T07:35:47;8.90;;;8.00;;
2848;SDS011;59355;52.416;13.412;2023-05-07T07:38:13;7.67;;;6.97;;
2848;SDS011;59355;52.416;13.412;2023-05-07T07:40:38;7.57;;;6.87;;
2848;SDS011;59355;52.416;13.412;2023-05-07T07:43:04;6.90;;;6.30;;
2848;SDS011;59355;52.416;13.412;2023-05-07T07:45:29;11.97;;;7.00;;
2848;SDS011;59355;52.416;13.412;2023-05-07T07:47:55;7.53;;;6.67;;
2848;SDS011;59355;52.416;13.412;2023-05-07T07:50:20;7.20;;;6.20;;
2848;SDS011;59355;52.416;13.412;2023-05-07T07:52:46;8.43;;;6.80;;
2848;SDS011;59355;52.416;13.412;2023-05-07T07:55:11;6.73;;;6.13;;
2848;SDS011;59355;52.416;13.412;2023-05-07T07:57:37;7.73;;;7.00;;
2848;SDS011;59355;52.416;13.412;2023-05-07T08:00:02;7.73;;;7.03;;
2848;SDS011;59355;52.416;13.412;2023-05-07T08:02:28;6.03;;;5.43;;
2848;SDS011;59355;52.416;13.412;2023-05-07T08:04:53;6.50;;;5.90;;
2848;SDS011;59355;52.416;13.412;2023-05-07T08:07:19;6.17;;;5.47;;
2848;SDS011;59355;52.416;13.412;2023-05-07T08:09:45;5.60;;;5.13;;
2848;SDS011;59355;52.416;13.412;2023-05-07T08:12:10;6.77;;;6.20;;
2848;SDS011;59355;52.416;13.412;2023-05-07T08:14:36;8.37;;;5.97;;
2848;SDS011;59355;52.416;13.412;2023-05-07T08:17:02;7.83;;;6.33;;
2848;SDS011;59355;52.416;13.412;2023-05-07T08:19:27;6.30;;;5.70;;
2848;SDS011;59355;52.416;13.412;2023-05-07T08:21:52;7.70;;;5.87;;
2848;SDS011;59355;52.416;13.412;2023-05-07T08:24:20;6.80;;;6.20;;
2848;SDS011;59355;52.416;13.412;2023-05-07T08:26:45;7.10;;;6.40;;
2848;SDS011;59355;52.416;13.412;2023-05-07T08:29:10;9.50;;;5.73;;
2848;SDS011;59355;52.416;13.412;2023-05-07T08:31:36;9.80;;;6.60;;
2848;SDS011;59355;52.416;13.412;2023-05-07T08:34:01;7.10;;;6.50;;
2848;SDS011;59355;52.416;13.412;2023-05-07T08:36:28;6.70;;;6.00;;
2848;SDS011;59355;52.416;13.412;2023-05-07T08:38:53;6.10;;;5.60;;
2848;SDS011;59355;52.416;13.412;2023-05-07T08:41:19;6.33;;;5.67;;
2848;SDS011;59355;52.416;13.412;2023-05-07T08:43:47;6.63;;;5.83;;
2848;SDS011;59355;52.416;13.412;2023-05-07T08:46:17;5.37;;;4.67;;
2848;SDS011;59355;52.416;13.412;2023-05-07T08:48:44;5.30;;;4.80;;
2848;SDS011;59355;52.416;13.412;2023-05-07T08:51:12;6.00;;;5.40;;
2848;SDS011;59355;52.416;13.412;2023-05-07T08:53:38;5.23;;;4.80;;
2848;SDS011;59355;52.416;13.412;2023-05-07T08:56:05;5.57;;;5.07;;
2848;SDS011;59355;52.416;13.412;2023-05-07T08:58:31;6.00;;;4.70;;
2848;SDS011;59355;52.416;13.412;2023-05-07T09:00:56;6.50;;;4.20;;
2848;SDS011;59355;52.416;13.412;2023-05-07T09:03:21;4.33;;;3.93;;
2848;SDS011;59355;52.416;13.412;2023-05-07T09:05:47;4.47;;;4.03;;
2848;SDS011;59355;52.416;13.412;2023-05-07T09:08:14;4.70;;;4.30;;
2848;SDS011;59355;52.416;13.412;2023-05-07T09:10:40;4.70;;;3.80;;
2848;SDS011;59355;52.416;13.412;2023-05-07T09:13:05;4.30;;;3.90;;
2848;SDS011;59355;52.416;13.412;2023-05-07T09:15:30;4.17;;;3.87;;
2848;SDS011;59355;52.416;13.412;2023-05-07T09:17:59;7.73;;;3.97;;
2848;SDS011;59355;52.416;13.412;2023-05-07T09:20:26;5.53;;;4.43;;
2848;SDS011;59355;52.416;13.412;2023-05-07T09:22:51;4.13;;;3.70;;
2848;SDS011;59355;52.416;13.412;2023-05-07T09:25:18;4.00;;;3.67;;
2848;SDS011;59355;52.416;13.412;2023-05-07T09:27:52;5.60;;;3.33;;
2848;SDS011;59355;52.416;13.412;2023-05-07T09:30:18;3.67;;;3.37;;
2848;SDS011;59355;52.416;13.412;2023-05-07T09:32:43;4.87;;;3.77;;
2848;SDS011;59355;52.416;13.412;2023-05-07T09:35:15;5.00;;;4.10;;
2848;SDS011;59355;52.416;13.412;2023-05-07T09:37:41;3.53;;;3.23;;
2848;SDS011;59355;52.416;13.412;2023-05-07T09:40:07;5.93;;;3.40;;
2848;SDS011;59355;52.416;13.412;2023-05-07T09:42:34;3.93;;;3.27;;
2848;SDS011;59355;52.416;13.412;2023-05-07T09:44:59;3.67;;;3.30;;
2848;SDS011;59355;52.416;13.412;2023-05-07T09:47:24;5.03;;;3.37;;
2848;SDS011;59355;52.416;13.412;2023-05-07T09:49:53;3.70;;;3.40;;
2848;SDS011;59355;52.416;13.412;2023-05-07T09:52:21;3.77;;;3.47;;
2848;SDS011;59355;52.416;13.412;2023-05-07T09:54:46;4.67;;;3.63;;
2848;SDS011;59355;52.416;13.412;2023-05-07T09:57:13;5.23;;;4.73;;
2848;SDS011;59355;52.416;13.412;2023-05-07T09:59:38;4.80;;;4.30;;
2848;SDS011;59355;52.416;13.412;2023-05-07T10:02:07;4.13;;;3.70;;
2848;SDS011;59355;52.416;13.412;2023-05-07T10:04:35;5.50;;;4.10;;
2848;SDS011;59355;52.416;13.412;2023-05-07T10:07:00;3.57;;;3.10;;
2848;SDS011;59355;52.416;13.412;2023-05-07T10:09:26;3.90;;;3.50;;
2848;SDS011;59355;52.416;13.412;2023-05-07T10:11:52;5.37;;;3.50;;
2848;SDS011;59355;52.416;13.412;2023-05-07T10:14:19;3.87;;;2.90;;
2848;SDS011;59355;52.416;13.412;2023-05-07T10:16:44;4.67;;;4.13;;
2848;SDS011;59355;52.416;13.412;2023-05-07T10:19:11;4.00;;;3.60;;
2848;SDS011;59355;52.416;13.412;2023-05-07T10:21:37;3.73;;;3.43;;
2848;SDS011;59355;52.416;13.412;2023-05-07T10:26:39;3.53;;;3.13;;
2848;SDS011;59355;52.416;13.412;2023-05-07T10:29:14;3.70;;;3.37;;
2848;SDS011;59355;52.416;13.412;2023-05-07T10:34:28;3.73;;;3.40;;
2848;SDS011;59355;52.416;13.412;2023-05-07T10:36:57;3.60;;;3.30;;
2848;SDS011;59355;52.416;13.412;2023-05-07T10:39:22;2.80;;;2.60;;
2848;SDS011;59355;52.416;13.412;2023-05-07T10:41:48;3.07;;;2.57;;
2848;SDS011;59355;52.416;13.412;2023-05-07T10:44:24;3.13;;;2.83;;
2848;SDS011;59355;52.416;13.412;2023-05-07T10:47:09;3.50;;;3.20;;
2848;SDS011;59355;52.416;13.412;2023-05-07T10:49:36;3.70;;;3.07;;
2848;SDS011;59355;52.416;13.412;2023-05-07T10:52:10;7.03;;;3.10;;
2848;SDS011;59355;52.416;13.412;2023-05-07T10:54:36;2.73;;;2.53;;
2848;SDS011;59355;52.416;13.412;2023-05-07T10:57:31;2.87;;;2.67;;
2848;SDS011;59355;52.416;13.412;2023-05-07T11:00:00;3.10;;;2.80;;
2848;SDS011;59355;52.416;13.412;2023-05-07T11:05:25;5.30;;;2.70;;
2848;SDS011;59355;52.416;13.412;2023-05-07T11:07:55;2.60;;;2.40;;
2848;SDS011;59355;52.416;13.412;2023-05-07T11:10:21;4.07;;;3.00;;
2848;SDS011;59355;52.416;13.412;2023-05-07T11:12:48;3.10;;;2.90;;
2848;SDS011;59355;52.416;13.412;2023-05-07T11:15:14;4.50;;;3.70;;
2848;SDS011;59355;52.416;13.412;2023-05-07T11:17:53;3.37;;;3.07;;
2848;SDS011;59355;52.416;13.412;2023-05-07T11:26:09;4.43;;;4.03;;
2848;SDS011;59355;52.416;13.412;2023-05-07T11:28:36;3.20;;;2.93;;
2848;SDS011;59355;52.416;13.412;2023-05-07T11:31:03;3.50;;;3.20;;
2848;SDS011;59355;52.416;13.412;2023-05-07T11:33:29;3.57;;;3.27;;
2848;SDS011;59355;52.416;13.412;2023-05-07T11:35:55;2.80;;;2.60;;
2848;SDS011;59355;52.416;13.412;2023-05-07T11:38:21;5.43;;;3.33;;
2848;SDS011;59355;52.416;13.412;2023-05-07T11:43:20;4.00;;;3.70;;
2848;SDS011;59355;52.416;13.412;2023-05-07T11:45:46;3.73;;;3.43;;
2848;SDS011;59355;52.416;13.412;2023-05-07T11:48:14;3.30;;;3.00;;
2848;SDS011;59355;52.416;13.412;2023-05-07T11:50:54;3.27;;;2.97;;
2848;SDS011;59355;52.416;13.412;2023-05-07T11:53:38;7.33;;;3.50;;
2848;SDS011;59355;52.416;13.412;2023-05-07T11:56:06;3.33;;;3.00;;
2848;SDS011;59355;52.416;13.412;2023-05-07T11:58:35;3.43;;;3.13;;
2848;SDS011;59355;52.416;13.412;2023-05-07T12:01:01;4.40;;;3.33;;
2848;SDS011;59355;52.416;13.412;2023-05-07T12:03:26;3.90;;;3.23;;
2848;SDS011;59355;52.416;13.412;2023-05-07T12:05:51;2.63;;;2.43;;
2848;SDS011;59355;52.416;13.412;2023-05-07T12:08:17;3.20;;;2.90;;
2848;SDS011;59355;52.416;13.412;2023-05-07T12:10:43;3.50;;;2.80;;
2848;SDS011;59355;52.416;13.412;2023-05-07T12:13:16;6.90;;;3.00;;
2848;SDS011;59355;52.416;13.412;2023-05-07T12:15:52;2.97;;;2.43;;
2848;SDS011;59355;52.416;13.412;2023-05-07T12:18:18;4.50;;;3.13;;
2848;SDS011;59355;52.416;13.412;2023-05-07T12:20:44;2.70;;;2.50;;
2848;SDS011;59355;52.416;13.412;2023-05-07T12:23:10;3.20;;;2.90;;
2848;SDS011;59355;52.416;13.412;2023-05-07T12:25:35;2.83;;;2.53;;
2848;SDS011;59355;52.416;13.412;2023-05-07T12:28:02;4.10;;;2.80;;
2848;SDS011;59355;52.416;13.412;2023-05-07T12:30:30;5.00;;;3.43;;
2848;SDS011;59355;52.416;13.412;2023-05-07T12:32:56;3.23;;;2.90;;
2848;SDS011;59355;52.416;13.412;2023-05-07T12:35:31;3.07;;;2.80;;
2848;SDS011;59355;52.416;13.412;2023-05-07T12:38:01;3.40;;;3.07;;
2848;SDS011;59355;52.416;13.412;2023-05-07T12:40:39;3.90;;;3.10;;
2848;SDS011;59355;52.416;13.412;2023-05-07T12:43:04;3.00;;;2.70;;
2848;SDS011;59355;52.416;13.412;2023-05-07T12:45:30;3.80;;;2.93;;
2848;SDS011;59355;52.416;13.412;2023-05-07T12:47:55;2.63;;;2.30;;
2848;SDS011;59355;52.416;13.412;2023-05-07T12:50:21;2.80;;;2.57;;
2848;SDS011;59355;52.416;13.412;2023-05-07T12:52:49;3.10;;;2.80;;
2848;SDS011;59355;52.416;13.412;2023-05-07T12:55:15;3.83;;;2.93;;
2848;SDS011;59355;52.416;13.412;2023-05-07T12:57:50;3.30;;;2.70;;
2848;SDS011;59355;52.416;13.412;2023-05-07T13:00:16;3.30;;;2.70;;
2848;SDS011;59355;52.416;13.412;2023-05-07T13:02:42;2.53;;;2.33;;
2848;SDS011;59355;52.416;13.412;2023-05-07T13:05:11;4.70;;;2.80;;
2848;SDS011;59355;52.416;13.412;2023-05-07T13:07:36;3.00;;;2.70;;
2848;SDS011;59355;52.416;13.412;2023-05-07T13:10:02;3.20;;;3.00;;
2848;SDS011;59355;52.416;13.412;2023-05-07T13:12:28;3.13;;;2.87;;
2848;SDS011;59355;52.416;13.412;2023-05-07T13:14:53;3.17;;;2.57;;
2848;SDS011;59355;52.416;13.412;2023-05-07T13:17:18;2.10;;;1.90;;
2848;SDS011;59355;52.416;13.412;2023-05-07T13:19:44;3.33;;;2.80;;
2848;SDS011;59355;52.416;13.412;2023-05-07T13:22:09;2.50;;;2.30;;
2848;SDS011;59355;52.416;13.412;2023-05-07T13:24:35;3.17;;;2.63;;
2848;SDS011;59355;52.416;13.412;2023-05-07T13:27:01;3.40;;;2.53;;
2848;SDS011;59355;52.416;13.412;2023-05-07T13:29:26;4.00;;;2.80;;
2848;SDS011;59355;52.416;13.412;2023-05-07T13:31:55;4.63;;;2.70;;
2848;SDS011;59355;52.416;13.412;2023-05-07T13:34:21;2.87;;;2.57;;
2848;SDS011;59355;52.416;13.412;2023-05-07T13:36:46;2.40;;;2.10;;
2848;SDS011;59355;52.416;13.412;2023-05-07T13:39:11;2.53;;;2.33;;
2848;SDS011;59355;52.416;13.412;2023-05-07T13:41:37;4.80;;;2.80;;
2848;SDS011;59355;52.416;13.412;2023-05-07T13:44:02;5.00;;;3.10;;
2848;SDS011;59355;52.416;13.412;2023-05-07T13:46:28;3.37;;;2.50;;
2848;SDS011;59355;52.416;13.412;2023-05-07T13:48:54;2.90;;;2.70;;
2848;SDS011;59355;52.416;13.412;2023-05-07T13:51:20;2.50;;;2.30;;
2848;SDS011;59355;52.416;13.412;2023-05-07T13:53:45;2.80;;;2.60;;
2848;SDS011;59355;52.416;13.412;2023-05-07T13:56:10;17.50;;;4.70;;
2848;SDS011;59355;52.416;13.412;2023-05-07T13:58:36;2.43;;;2.23;;
2848;SDS011;59355;52.416;13.412;2023-05-07T14:01:01;2.63;;;2.33;;
2848;SDS011;59355;52.416;13.412;2023-05-07T14:03:27;2.90;;;2.10;;
2848;SDS011;59355;52.416;13.412;2023-05-07T14:05:52;3.10;;;2.27;;
2848;SDS011;59355;52.416;13.412;2023-05-07T14:08:17;2.93;;;2.63;;
2848;SDS011;59355;52.416;13.412;2023-05-07T14:10:44;6.10;;;2.30;;
2848;SDS011;59355;52.416;13.412;2023-05-07T14:13:10;5.70;;;3.20;;
2848;SDS011;59355;52.416;13.412;2023-05-07T14:15:36;3.00;;;2.50;;
2848;SDS011;59355;52.416;13.412;2023-05-07T14:18:02;2.97;;;2.60;;
2848;SDS011;59355;52.416;13.412;2023-05-07T14:20:27;3.17;;;2.87;;
2848;SDS011;59355;52.416;13.412;2023-05-07T14:22:53;2.93;;;2.67;;
2848;SDS011;59355;52.416;13.412;2023-05-07T14:25:18;3.90;;;2.50;;
2848;SDS011;59355;52.416;13.412;2023-05-07T14:27:43;2.93;;;2.47;;
2848;SDS011;59355;52.416;13.412;2023-05-07T14:30:09;2.87;;;2.60;;
2848;SDS011;59355;52.416;13.412;2023-05-07T14:32:34;4.00;;;3.10;;
2848;SDS011;59355;52.416;13.412;2023-05-07T14:34:59;3.03;;;2.83;;
2848;SDS011;59355;52.416;13.412;2023-05-07T14:37:25;2.80;;;2.60;;
2848;SDS011;59355;52.416;13.412;2023-05-07T14:39:50;2.90;;;2.60;;
2848;SDS011;59355;52.416;13.412;2023-05-07T14:42:15;3.17;;;2.87;;
2848;SDS011;59355;52.416;13.412;2023-05-07T14:44:41;3.17;;;2.87;;
2848;SDS011;59355;52.416;13.412;2023-05-07T14:47:06;3.57;;;3.10;;